createdAt,value
2023-02-02T00:00:42.750Z,6.73
2023-02-02T00:03:14.836Z,6.63
2023-02-02T00:05:48.279Z,6.72
2023-02-02T00:08:21.258Z,6.20
2023-02-02T00:10:52.714Z,6.03
2023-02-02T00:13:24.193Z,6.25
2023-02-02T00:15:55.718Z,7.15
2023-02-02T00:18:27.149Z,6.72
2023-02-02T00:20:58.627Z,6.13
2023-02-02T00:23:30.009Z,6.07
2023-02-02T00:26:01.472Z,6.70
2023-02-02T00:28:32.919Z,6.57
2023-02-02T00:31:04.553Z,6.13
2023-02-02T00:33:36.073Z,6.25
2023-02-02T00:36:08.142Z,6.13
2023-02-02T00:38:39.578Z,6.10
2023-02-02T00:41:11.037Z,5.88
2023-02-02T00:43:43.051Z,6.68
2023-02-02T00:46:18.593Z,6.32
2023-02-02T00:48:51.573Z,5.60
2023-02-02T00:51:23.012Z,6.75
2023-02-02T00:53:54.480Z,6.05
2023-02-02T00:56:25.928Z,6.47
2023-02-02T00:58:57.361Z,6.82
2023-02-02T01:01:29.055Z,6.93
2023-02-02T01:04:00.675Z,6.50
2023-02-02T01:06:32.211Z,7.15
2023-02-02T01:09:04.218Z,6.35
2023-02-02T01:11:35.709Z,7.30
2023-02-02T01:14:07.323Z,6.53
2023-02-02T01:16:38.803Z,5.97
2023-02-02T01:22:36.657Z,6.60
2023-02-02T01:25:08.902Z,6.25
2023-02-02T01:27:40.396Z,6.82
2023-02-02T01:30:12.546Z,6.37
2023-02-02T01:32:43.974Z,6.60
2023-02-02T01:35:15.559Z,6.40
2023-02-02T01:37:47.068Z,6.78
2023-02-02T01:40:18.604Z,6.38
2023-02-02T01:42:50.029Z,6.60
2023-02-02T01:45:28.640Z,6.60
2023-02-02T01:48:00.601Z,7.20
2023-02-02T01:50:35.444Z,6.55
2023-02-02T01:53:08.095Z,7.20
2023-02-02T01:55:41.414Z,6.40
2023-02-02T01:58:16.547Z,7.30
2023-02-02T02:00:48.637Z,6.35
2023-02-02T02:03:28.797Z,6.30
2023-02-02T02:06:04.479Z,6.45
2023-02-02T02:08:39.879Z,6.68
2023-02-02T02:11:11.286Z,6.90
2023-02-02T02:13:42.751Z,6.27
2023-02-02T02:16:29.421Z,6.70
2023-02-02T02:19:03.775Z,6.43
2023-02-02T02:21:38.188Z,5.95
2023-02-02T02:24:47.409Z,6.33
2023-02-02T02:27:21.610Z,6.50
2023-02-02T02:30:01.984Z,6.07
2023-02-02T02:32:36.395Z,6.38
2023-02-02T02:35:07.776Z,6.32
2023-02-02T02:37:49.433Z,5.97
2023-02-02T02:40:47.078Z,6.18
2023-02-02T02:43:29.412Z,6.25
2023-02-02T02:46:02.397Z,5.75
2023-02-02T02:48:33.951Z,5.95
2023-02-02T02:51:29.381Z,5.93
2023-02-02T02:54:01.054Z,6.32
2023-02-02T02:56:41.865Z,5.50
2023-02-02T02:59:25.619Z,5.68
2023-02-02T03:02:06.533Z,6.03
2023-02-02T03:04:45.083Z,5.78
2023-02-02T03:07:29.184Z,5.60
2023-02-02T03:10:02.504Z,5.85
2023-02-02T03:12:34.641Z,6.00
2023-02-02T03:15:06.667Z,5.75
2023-02-02T03:17:38.228Z,6.65
2023-02-02T03:20:11.085Z,6.07
2023-02-02T03:22:42.728Z,5.28
2023-02-02T03:25:14.369Z,5.72
2023-02-02T03:27:45.894Z,5.63
2023-02-02T03:30:18.149Z,5.30
2023-02-02T03:32:51.381Z,5.35
2023-02-02T03:35:23.413Z,5.95
2023-02-02T03:37:55.384Z,5.43
2023-02-02T03:40:28.946Z,5.97
2023-02-02T03:43:00.455Z,6.07
2023-02-02T03:45:32.091Z,5.97
2023-02-02T03:48:04.840Z,6.07
2023-02-02T03:50:37.386Z,5.93
2023-02-02T03:53:08.833Z,5.93
2023-02-02T03:55:40.282Z,5.70
2023-02-02T03:58:11.773Z,5.78
2023-02-02T04:00:43.503Z,5.10
2023-02-02T04:03:14.954Z,5.90
2023-02-02T04:05:49.831Z,5.43
2023-02-02T04:08:21.320Z,5.60
2023-02-02T04:10:52.766Z,5.60
2023-02-02T04:13:24.275Z,5.57
2023-02-02T04:16:01.686Z,5.00
2023-02-02T04:18:33.194Z,5.13
2023-02-02T04:21:05.879Z,5.47
2023-02-02T04:23:37.448Z,5.22
2023-02-02T04:26:08.907Z,5.47
2023-02-02T04:28:40.422Z,5.28
2023-02-02T04:31:11.925Z,4.80
2023-02-02T04:33:43.572Z,5.18
2023-02-02T04:36:15.025Z,4.82
2023-02-02T04:38:49.821Z,5.53
2023-02-02T04:41:22.455Z,5.40
2023-02-02T04:43:53.879Z,5.00
2023-02-02T04:46:25.420Z,5.00
2023-02-02T04:48:56.857Z,5.03
2023-02-02T04:51:28.279Z,4.93
2023-02-02T04:53:59.672Z,5.50
2023-02-02T04:56:31.096Z,4.88
2023-02-02T04:59:02.644Z,5.22
2023-02-02T05:01:34.049Z,5.13
2023-02-02T05:04:05.600Z,4.78
2023-02-02T05:06:37.107Z,5.43
2023-02-02T05:09:08.524Z,5.43
2023-02-02T05:11:40.738Z,5.45
2023-02-02T05:14:12.382Z,5.40
2023-02-02T05:16:44.444Z,5.53
2023-02-02T05:19:16.035Z,5.13
2023-02-02T05:21:48.787Z,5.50
2023-02-02T05:24:22.038Z,5.43
2023-02-02T05:26:53.941Z,5.05
2023-02-02T05:29:25.433Z,5.20
2023-02-02T05:31:58.695Z,6.10
2023-02-02T05:34:33.606Z,5.35
2023-02-02T05:37:05.072Z,5.18
2023-02-02T05:39:36.547Z,5.55
2023-02-02T05:42:08.034Z,5.35
2023-02-02T05:44:39.511Z,5.13
2023-02-02T05:47:10.904Z,5.10
2023-02-02T05:49:42.367Z,5.40
2023-02-02T05:52:19.495Z,5.88
2023-02-02T05:54:50.881Z,5.75
2023-02-02T05:57:22.336Z,6.05
2023-02-02T05:59:54.685Z,5.25
2023-02-02T06:02:26.294Z,5.57
2023-02-02T06:04:57.704Z,5.00
2023-02-02T06:07:29.178Z,4.43
2023-02-02T06:10:00.650Z,4.93
2023-02-02T06:12:32.123Z,4.85
2023-02-02T06:15:04.295Z,5.57
2023-02-02T06:17:35.868Z,4.80
2023-02-02T06:20:07.668Z,5.07
2023-02-02T06:22:39.114Z,5.53
2023-02-02T06:25:10.534Z,5.57
2023-02-02T06:27:41.927Z,5.50
2023-02-02T06:30:13.784Z,5.60
2023-02-02T06:32:45.159Z,5.80
2023-02-02T06:35:17.028Z,5.40
2023-02-02T06:37:48.499Z,5.80
2023-02-02T06:40:19.928Z,5.28
2023-02-02T06:42:58.822Z,5.07
2023-02-02T06:45:31.272Z,5.68
2023-02-02T06:48:02.703Z,5.23
2023-02-02T06:50:34.114Z,5.05
2023-02-02T06:53:05.930Z,5.05
2023-02-02T06:55:37.332Z,4.95
2023-02-02T06:58:08.747Z,5.50
2023-02-02T07:00:40.155Z,5.53
2023-02-02T07:03:11.555Z,5.50
2023-02-02T07:05:43.071Z,5.07
2023-02-02T07:08:14.941Z,4.63
2023-02-02T07:11:12.076Z,5.18
2023-02-02T07:13:37.763Z,5.03
2023-02-02T07:16:09.280Z,5.00
2023-02-02T07:18:41.744Z,5.72
2023-02-02T07:21:18.916Z,5.43
2023-02-02T07:23:50.998Z,5.43
2023-02-02T07:26:22.430Z,5.30
2023-02-02T07:28:53.960Z,5.50
2023-02-02T07:31:26.905Z,5.05
2023-02-02T07:33:58.359Z,4.90
2023-02-02T07:36:29.806Z,5.60
2023-02-02T07:39:01.298Z,5.13
2023-02-02T07:41:35.211Z,5.33
2023-02-02T07:44:06.828Z,5.57
2023-02-02T07:46:38.251Z,5.28
2023-02-02T07:49:15.031Z,5.40
2023-02-02T07:51:47.848Z,5.47
2023-02-02T07:54:19.376Z,5.13
2023-02-02T07:56:50.889Z,6.15
2023-02-02T07:59:22.345Z,5.22
2023-02-02T08:01:53.843Z,5.45
2023-02-02T08:04:25.424Z,5.22
2023-02-02T08:06:56.826Z,5.25
2023-02-02T08:09:28.243Z,4.75
2023-02-02T08:11:59.811Z,5.53
2023-02-02T08:14:31.303Z,4.68
2023-02-02T08:17:02.715Z,5.03
2023-02-02T08:19:34.185Z,4.95
2023-02-02T08:22:05.612Z,4.60
2023-02-02T08:24:37.080Z,5.03
2023-02-02T08:27:09.603Z,5.22
2023-02-02T08:29:41.030Z,4.75
2023-02-02T08:32:12.558Z,5.25
2023-02-02T08:34:44.009Z,4.38
2023-02-02T08:37:15.467Z,4.78
2023-02-02T08:39:47.453Z,4.78
2023-02-02T08:42:18.899Z,5.18
2023-02-02T08:45:01.387Z,5.45
2023-02-02T08:47:41.775Z,4.55
2023-02-02T08:50:13.386Z,5.00
2023-02-02T08:52:44.903Z,4.72
2023-02-02T08:55:16.498Z,4.93
2023-02-02T08:57:47.945Z,4.60
2023-02-02T09:00:19.884Z,4.90
2023-02-02T09:02:51.497Z,5.07
2023-02-02T09:05:23.303Z,4.53
2023-02-02T09:07:54.862Z,5.00
2023-02-02T09:10:26.400Z,4.85
2023-02-02T09:12:57.789Z,5.33
2023-02-02T09:15:29.574Z,4.80
2023-02-02T09:18:01.038Z,5.65
2023-02-02T09:20:32.481Z,4.90
2023-02-02T09:23:03.959Z,5.07
2023-02-02T09:25:35.432Z,5.13
2023-02-02T09:28:06.879Z,5.07
2023-02-02T09:30:38.495Z,5.00
2023-02-02T09:33:09.962Z,4.50
2023-02-02T09:35:41.392Z,4.50
2023-02-02T09:38:12.825Z,4.85
2023-02-02T09:40:44.402Z,4.95
2023-02-02T09:43:46.444Z,4.68
2023-02-02T09:46:26.975Z,4.65
2023-02-02T09:49:03.154Z,4.60
2023-02-02T09:51:41.296Z,5.00
2023-02-02T09:54:20.950Z,4.13
2023-02-02T09:56:56.145Z,4.85
2023-02-02T09:59:41.632Z,4.57
2023-02-02T10:02:21.361Z,5.03
2023-02-02T10:04:56.469Z,4.50
2023-02-02T10:07:36.252Z,4.13
2023-02-02T10:10:28.363Z,4.40
2023-02-02T10:13:05.720Z,4.32
2023-02-02T10:15:44.271Z,4.35
2023-02-02T10:18:41.840Z,3.90
2023-02-02T10:21:38.006Z,3.97
2023-02-02T10:24:24.306Z,4.53
2023-02-02T10:26:58.681Z,4.55
2023-02-02T10:29:53.307Z,4.28
2023-02-02T10:32:48.152Z,4.27
2023-02-02T10:35:38.729Z,4.18
2023-02-02T10:38:12.996Z,5.13
2023-02-02T10:40:47.532Z,4.50
2023-02-02T10:43:49.200Z,3.80
2023-02-02T10:46:52.815Z,4.55
2023-02-02T10:49:32.474Z,4.80
2023-02-02T10:52:29.778Z,4.65
2023-02-02T10:55:21.911Z,4.70
2023-02-02T10:58:11.447Z,4.80
2023-02-02T11:00:45.644Z,4.78
2023-02-02T11:03:19.886Z,5.30
2023-02-02T11:05:51.637Z,4.70
2023-02-02T11:08:43.936Z,5.20
2023-02-02T11:11:22.897Z,4.68
2023-02-02T11:14:09.665Z,4.30
2023-02-02T11:16:44.617Z,4.55
2023-02-02T11:19:19.280Z,4.18
2023-02-02T11:21:54.240Z,4.70
2023-02-02T11:24:29.882Z,4.70
2023-02-02T11:27:24.063Z,4.82
2023-02-02T11:29:58.165Z,3.92
2023-02-02T11:32:33.472Z,4.13
2023-02-02T11:35:07.600Z,4.83
2023-02-02T11:37:39.113Z,4.10
2023-02-02T11:40:22.843Z,5.13
2023-02-02T11:43:00.377Z,4.10
2023-02-02T11:45:41.593Z,4.20
2023-02-02T11:48:26.306Z,4.53
2023-02-02T11:50:59.726Z,4.78
2023-02-02T11:53:35.814Z,4.40
2023-02-02T11:56:17.612Z,5.10
2023-02-02T11:58:57.095Z,3.83
2023-02-02T12:01:30.063Z,5.25
2023-02-02T12:04:21.308Z,4.03
2023-02-02T12:06:52.803Z,4.50
2023-02-02T12:09:25.832Z,4.85
2023-02-02T12:12:00.354Z,4.57
2023-02-02T12:14:50.458Z,4.28
2023-02-02T12:17:21.908Z,4.85
2023-02-02T12:20:04.092Z,4.60
2023-02-02T12:22:44.636Z,4.03
2023-02-02T12:25:52.946Z,4.32
2023-02-02T12:28:39.834Z,4.00
2023-02-02T12:31:24.055Z,4.05
2023-02-02T12:34:14.419Z,3.90
2023-02-02T12:36:50.112Z,3.47
2023-02-02T12:39:32.773Z,3.35
2023-02-02T12:42:42.163Z,4.38
2023-02-02T12:45:29.842Z,4.30
2023-02-02T12:48:23.775Z,3.47
2023-02-02T12:51:01.072Z,3.65
2023-02-02T12:54:34.155Z,3.60
2023-02-02T12:57:05.441Z,3.47
2023-02-02T12:59:57.550Z,2.92
2023-02-02T13:02:28.968Z,3.08
2023-02-02T13:05:18.886Z,2.70
2023-02-02T13:07:56.247Z,2.80
2023-02-02T13:10:34.567Z,2.80
2023-02-02T13:13:12.279Z,2.85
2023-02-02T13:15:49.118Z,2.83
2023-02-02T13:18:35.835Z,3.08
2023-02-02T13:21:13.026Z,3.05
2023-02-02T13:23:49.135Z,3.95
2023-02-02T13:26:24.402Z,3.60
2023-02-02T13:29:06.357Z,3.58
2023-02-02T13:31:47.309Z,3.70
2023-02-02T13:34:31.608Z,4.63
2023-02-02T13:37:12.882Z,3.58
2023-02-02T13:40:01.030Z,4.07
2023-02-02T13:42:43.196Z,4.00
2023-02-02T13:45:28.021Z,3.80
2023-02-02T13:48:13.954Z,4.15
2023-02-02T13:51:24.352Z,3.83
2023-02-02T13:54:09.203Z,4.05
2023-02-02T13:57:12.876Z,4.27
2023-02-02T14:00:02.794Z,3.88
2023-02-02T14:02:45.027Z,5.05
2023-02-02T14:05:27.863Z,4.65
2023-02-02T14:08:16.833Z,4.65
2023-02-02T14:10:54.121Z,4.68
2023-02-02T14:13:37.531Z,4.38
2023-02-02T14:16:22.458Z,5.05
2023-02-02T14:18:55.074Z,4.40
2023-02-02T14:21:32.555Z,4.80
2023-02-02T14:24:25.763Z,5.13
2023-02-02T14:26:59.612Z,4.90
2023-02-02T14:29:31.096Z,5.10
2023-02-02T14:32:24.462Z,5.07
2023-02-02T14:35:07.999Z,4.20
2023-02-02T14:37:57.015Z,4.72
2023-02-02T14:40:53.492Z,5.47
2023-02-02T14:43:36.494Z,5.63
2023-02-02T14:46:14.120Z,5.17
2023-02-02T14:49:14.829Z,4.90
2023-02-02T14:51:55.481Z,4.60
2023-02-02T14:54:34.541Z,5.90
2023-02-02T14:57:27.232Z,5.50
2023-02-02T15:00:01.361Z,5.57
2023-02-02T15:02:36.269Z,5.90
2023-02-02T15:05:29.443Z,5.85
2023-02-02T15:08:21.071Z,5.43
2023-02-02T15:10:57.071Z,5.85
2023-02-02T15:13:37.167Z,5.72
2023-02-02T15:16:21.636Z,5.75
2023-02-02T15:19:33.927Z,5.30
2023-02-02T15:22:32.139Z,4.75
2023-02-02T15:25:13.659Z,5.43
2023-02-02T15:27:56.844Z,5.13
2023-02-02T15:30:31.813Z,5.00
2023-02-02T15:33:12.411Z,5.95
2023-02-02T15:35:44.090Z,6.10
2023-02-02T15:38:19.018Z,5.43
2023-02-02T15:40:50.610Z,5.15
2023-02-02T15:43:23.213Z,5.20
2023-02-02T15:46:02.155Z,5.53
2023-02-02T15:48:33.991Z,5.82
2023-02-02T15:51:14.476Z,5.50
2023-02-02T15:53:48.863Z,4.82
2023-02-02T15:56:23.087Z,5.90
2023-02-02T15:58:57.144Z,4.97
2023-02-02T16:01:43.598Z,5.38
2023-02-02T16:04:23.746Z,5.05
2023-02-02T16:06:56.169Z,5.85
2023-02-02T16:09:34.093Z,5.30
2023-02-02T16:12:06.422Z,5.43
2023-02-02T16:14:39.669Z,5.10
2023-02-02T16:17:20.708Z,5.90
2023-02-02T16:20:03.221Z,5.00
2023-02-02T16:22:37.134Z,5.20
2023-02-02T16:25:13.226Z,4.73
2023-02-02T16:27:47.426Z,4.73
2023-02-02T16:30:33.507Z,4.90
2023-02-02T16:33:38.081Z,4.82
2023-02-02T16:36:26.993Z,4.63
2023-02-02T16:38:59.056Z,4.63
2023-02-02T16:41:37.138Z,4.53
2023-02-02T16:44:43.214Z,4.67
2023-02-02T16:47:26.652Z,3.92
2023-02-02T16:50:07.178Z,4.18
2023-02-02T16:52:53.651Z,4.25
2023-02-02T16:55:36.419Z,4.15
2023-02-02T16:58:22.668Z,4.60
2023-02-02T17:01:15.510Z,4.38
2023-02-02T17:03:52.968Z,4.88
2023-02-02T17:06:45.773Z,4.10
2023-02-02T17:09:33.207Z,3.78
2023-02-02T17:12:33.290Z,4.60
2023-02-02T17:15:17.786Z,4.00
2023-02-02T17:17:49.325Z,4.18
2023-02-02T17:20:21.509Z,4.20
2023-02-02T17:23:03.035Z,4.03
2023-02-02T17:25:41.620Z,3.38
2023-02-02T17:28:17.690Z,3.77
2023-02-02T17:30:57.801Z,4.15
2023-02-02T17:33:34.114Z,4.07
2023-02-02T17:36:06.041Z,3.95
2023-02-02T17:38:37.547Z,4.22
2023-02-02T17:41:11.921Z,4.30
2023-02-02T17:43:44.441Z,3.97
2023-02-02T17:46:15.912Z,3.88
2023-02-02T17:48:47.322Z,3.83
2023-02-02T17:51:18.733Z,3.60
2023-02-02T17:53:50.210Z,3.67
2023-02-02T17:56:21.620Z,4.00
2023-02-02T17:58:53.026Z,3.58
2023-02-02T18:01:24.524Z,3.83
2023-02-02T18:03:56.062Z,3.38
2023-02-02T18:06:27.488Z,3.45
2023-02-02T18:08:58.882Z,4.40
2023-02-02T18:11:30.305Z,4.13
2023-02-02T18:14:01.769Z,3.97
2023-02-02T18:16:33.221Z,3.97
2023-02-02T18:19:04.594Z,3.40
2023-02-02T18:21:36.053Z,3.83
2023-02-02T18:24:07.542Z,4.70
2023-02-02T18:26:38.964Z,4.47
2023-02-02T18:29:10.372Z,5.07
2023-02-02T18:31:42.505Z,4.32
2023-02-02T18:34:14.271Z,3.92
2023-02-02T18:36:45.667Z,4.30
2023-02-02T18:39:17.085Z,3.80
2023-02-02T18:41:48.450Z,4.15
2023-02-02T18:44:19.886Z,3.60
2023-02-02T18:46:51.712Z,4.35
2023-02-02T18:49:23.314Z,4.85
2023-02-02T18:51:54.726Z,4.75
2023-02-02T18:54:26.212Z,4.05
2023-02-02T18:56:57.663Z,4.57
2023-02-02T18:59:29.114Z,4.53
2023-02-02T19:02:00.564Z,4.50
2023-02-02T19:04:32.011Z,4.05
2023-02-02T19:07:03.432Z,4.22
2023-02-02T19:09:34.852Z,4.00
2023-02-02T19:12:15.427Z,4.50
2023-02-02T19:14:46.834Z,4.50
2023-02-02T19:17:22.197Z,4.17
2023-02-02T19:19:57.723Z,4.97
2023-02-02T19:22:29.753Z,4.35
2023-02-02T19:25:01.375Z,4.07
2023-02-02T19:27:32.765Z,4.72
2023-02-02T19:30:15.638Z,4.45
2023-02-02T19:32:47.445Z,4.93
2023-02-02T19:35:23.970Z,4.25
2023-02-02T19:38:00.554Z,4.80
2023-02-02T19:40:33.869Z,4.00
2023-02-02T19:43:08.248Z,3.55
2023-02-02T19:45:40.448Z,3.63
2023-02-02T19:48:34.798Z,3.85
2023-02-02T19:51:39.385Z,3.88
2023-02-02T19:54:28.182Z,4.20
2023-02-02T19:57:31.801Z,3.25
2023-02-02T20:00:19.158Z,3.85
2023-02-02T20:03:06.493Z,3.70
2023-02-02T20:05:41.005Z,3.50
2023-02-02T20:08:40.566Z,3.70
2023-02-02T20:11:35.447Z,3.73
2023-02-02T20:14:19.246Z,3.38
2023-02-02T20:16:59.254Z,4.38
2023-02-02T20:19:34.925Z,3.88
2023-02-02T20:22:23.765Z,3.78
2023-02-02T20:25:02.082Z,4.97
2023-02-02T20:27:34.105Z,4.40
2023-02-02T20:30:37.691Z,4.63
2023-02-02T20:33:23.025Z,4.68
2023-02-02T20:35:54.537Z,4.80
2023-02-02T20:38:28.582Z,3.55
2023-02-02T20:41:00.260Z,4.68
2023-02-02T20:43:31.811Z,5.10
2023-02-02T20:46:03.538Z,5.63
2023-02-02T20:48:35.022Z,4.72
2023-02-02T20:51:06.518Z,4.68
2023-02-02T20:53:37.921Z,5.03
2023-02-02T20:56:09.330Z,4.47
2023-02-02T20:58:40.734Z,4.68
2023-02-02T21:01:12.289Z,4.60
2023-02-02T21:03:43.724Z,5.18
2023-02-02T21:06:15.147Z,4.90
2023-02-02T21:08:46.596Z,4.88
2023-02-02T21:11:18.969Z,4.70
2023-02-02T21:13:50.401Z,4.82
2023-02-02T21:16:22.234Z,4.63
2023-02-02T21:18:53.691Z,4.78
2023-02-02T21:21:25.345Z,4.32
2023-02-02T21:23:56.843Z,4.88
2023-02-02T21:26:28.471Z,4.80
2023-02-02T21:28:59.906Z,4.68
2023-02-02T21:31:31.486Z,4.60
2023-02-02T21:34:03.071Z,4.80
2023-02-02T21:36:38.654Z,4.23
2023-02-02T21:39:19.450Z,4.88
2023-02-02T21:42:13.946Z,5.53
2023-02-02T21:44:50.140Z,4.80
2023-02-02T21:47:45.421Z,4.97
2023-02-02T21:50:21.154Z,4.75
2023-02-02T21:53:13.072Z,5.50
2023-02-02T21:55:47.266Z,5.63
2023-02-02T21:58:32.432Z,5.38
2023-02-02T22:01:34.275Z,4.83
2023-02-02T22:04:33.836Z,5.47
2023-02-02T22:07:14.750Z,4.72
2023-02-02T22:09:46.183Z,4.47
2023-02-02T22:12:20.518Z,4.50
2023-02-02T22:14:54.945Z,4.65
2023-02-02T22:17:34.541Z,4.63
2023-02-02T22:20:15.255Z,4.03
2023-02-02T22:22:50.011Z,4.78
2023-02-02T22:25:32.660Z,5.05
2023-02-02T22:28:29.582Z,4.80
2023-02-02T22:31:01.069Z,4.50
2023-02-02T22:33:32.611Z,4.65
2023-02-02T22:36:04.334Z,4.68
2023-02-02T22:38:35.729Z,4.70
2023-02-02T22:41:07.194Z,4.57
2023-02-02T22:43:38.641Z,4.65
2023-02-02T22:46:10.107Z,5.18
2023-02-02T22:48:41.578Z,4.17
2023-02-02T22:51:12.998Z,4.65
2023-02-02T22:53:44.394Z,4.13
2023-02-02T22:56:15.843Z,4.78
2023-02-02T22:58:47.262Z,4.63
2023-02-02T23:01:18.687Z,4.23
2023-02-02T23:03:50.141Z,4.35
2023-02-02T23:06:21.587Z,4.47
2023-02-02T23:08:52.983Z,4.18
2023-02-02T23:11:24.408Z,4.22
2023-02-02T23:13:55.834Z,4.60
2023-02-02T23:16:27.291Z,5.20
2023-02-02T23:18:58.773Z,4.13
2023-02-02T23:21:30.402Z,4.75
2023-02-02T23:24:01.842Z,4.78
2023-02-02T23:26:33.290Z,4.55
2023-02-02T23:29:04.759Z,3.85
2023-02-02T23:31:36.220Z,4.47
2023-02-02T23:34:07.731Z,4.65
2023-02-02T23:36:39.139Z,4.83
2023-02-02T23:39:10.562Z,4.47
2023-02-02T23:41:41.996Z,4.60
2023-02-02T23:44:13.495Z,3.90
2023-02-02T23:46:45.021Z,4.03
2023-02-02T23:49:16.950Z,4.93
2023-02-02T23:51:48.474Z,4.43
2023-02-02T23:54:19.925Z,4.82
2023-02-02T23:56:51.651Z,5.33
2023-02-02T23:59:23.085Z,4.43
